Time;durP1;ratioP1;P1;durP2;ratioP2;P2;SDS_P1;SDS_P2;PMS_P1;PMS_P2;Temp;Humidity;BMP_temperature;BMP_pressure;BME280_temperature;BME280_humidity;BME280_pressure;Samples;Min_cycle;Max_cycle;Signal;HPM_P1;HPM_P2
2021/05/25 00:02:04;;;;;;;3.37;1.50;;;16.10;99.90;;;;;;5040061;28;20465;-81
2021/05/25 00:04:30;;;;;;;1.37;1.27;;;;;;;;;;5044607;28;20453;-82
2021/05/25 00:06:57;;;;;;;1.97;1.77;;;;;;;;;;5043161;28;20953;-82
2021/05/25 00:09:24;;;;;;;5.57;1.97;;;16.50;99.90;;;;;;5039980;28;20796;-82
2021/05/25 00:11:50;;;;;;;4.40;1.70;;;;;;;;;;5039689;28;20478;-82
2021/05/25 00:14:19;;;;;;;2.40;2.20;;;16.40;99.90;;;;;;5039750;28;20477;-82
2021/05/25 00:16:45;;;;;;;3.30;1.57;;;;;;;;;;5040200;28;20461;-82
2021/05/25 00:19:12;;;;;;;4.80;1.53;;;;;;;;;;5040380;28;20489;-82
2021/05/25 00:21:38;;;;;;;2.80;1.50;;;;;;;;;;5040110;28;20508;-82
2021/05/25 00:24:05;;;;;;;2.47;1.67;;;16.40;99.90;;;;;;5040373;28;20450;-82
2021/05/25 00:26:32;;;;;;;1.80;1.70;;;16.40;99.90;;;;;;5042206;28;20446;-82
2021/05/25 00:28:58;;;;;;;2.37;1.50;;;16.30;99.90;;;;;;5043888;28;20473;-81
2021/05/25 00:31:24;;;;;;;3.67;1.60;;;15.50;99.90;;;;;;5050127;28;20453;-82
2021/05/25 00:33:50;;;;;;;1.20;1.10;;;15.90;99.90;;;;;;5052010;28;20514;-81
2021/05/25 00:36:16;;;;;;;1.33;1.23;;;15.70;99.90;;;;;;5049253;28;20439;-81
2021/05/25 00:38:43;;;;;;;1.53;1.30;;;16.00;99.90;;;;;;5039534;28;20520;-82
2021/05/25 00:41:09;;;;;;;1.60;1.27;;;15.40;99.90;;;;;;5039283;28;20945;-82
2021/05/25 00:43:36;;;;;;;3.90;1.27;;;15.50;99.90;;;;;;5043047;28;20472;-82
2021/05/25 00:46:02;;;;;;;4.87;1.30;;;15.50;99.90;;;;;;5039708;28;20937;-82
2021/05/25 00:48:28;;;;;;;1.67;1.37;;;15.80;99.90;;;;;;5039365;28;20466;-83
2021/05/25 00:50:55;;;;;;;1.90;1.53;;;15.40;99.90;;;;;;5039399;28;20473;-83
2021/05/25 00:53:22;;;;;;;1.30;1.20;;;15.30;99.90;;;;;;5039620;28;20791;-82
2021/05/25 00:55:49;;;;;;;4.60;1.50;;;15.10;99.90;;;;;;5043139;28;20476;-82
2021/05/25 00:58:15;;;;;;;2.20;1.53;;;15.30;99.90;;;;;;5043734;28;20493;-82
2021/05/25 01:00:44;;;;;;;1.83;1.30;;;15.20;99.90;;;;;;5039741;28;20551;-82
2021/05/25 01:03:12;;;;;;;1.70;1.33;;;15.00;99.90;;;;;;5039605;28;20870;-83
2021/05/25 01:05:38;;;;;;;1.77;1.67;;;14.40;99.90;;;;;;5038919;28;20442;-81
2021/05/25 01:08:05;;;;;;;1.43;1.33;;;14.50;99.90;;;;;;5051169;28;20466;-80
2021/05/25 01:10:34;;;;;;;1.40;1.23;;;14.80;99.90;;;;;;5059394;28;20542;-80
2021/05/25 01:13:03;;;;;;;2.80;1.90;;;14.30;99.90;;;;;;5058716;28;20434;-80
2021/05/25 01:15:31;;;;;;;4.73;1.67;;;;;;;;;;5058401;28;20447;-79
2021/05/25 01:17:59;;;;;;;2.97;2.23;;;;;;;;;;5058401;28;20485;-81
2021/05/25 01:20:28;;;;;;;2.57;1.83;;;14.30;99.90;;;;;;5057336;28;20486;-79
2021/05/25 01:22:56;;;;;;;1.80;1.70;;;;;;;;;;5056403;28;20883;-80
2021/05/25 01:25:24;;;;;;;1.70;1.60;;;14.10;99.90;;;;;;5057339;28;20438;-80
2021/05/25 01:27:52;;;;;;;2.17;1.97;;;14.10;99.90;;;;;;5039601;28;20485;-82
2021/05/25 01:30:21;;;;;;;2.83;1.73;;;14.10;99.90;;;;;;5039270;28;20954;-82
2021/05/25 01:32:48;;;;;;;1.60;1.50;;;;;;;;;;5038933;28;20450;-82
2021/05/25 01:35:14;;;;;;;3.97;1.60;;;;;;;;;;5039108;28;20806;-82
2021/05/25 01:37:41;;;;;;;3.10;2.07;;;;;;;;;;5037925;28;20501;-82
2021/05/25 01:40:09;;;;;;;2.83;2.00;;;14.00;99.90;;;;;;5038006;28;20518;-82
2021/05/25 01:42:37;;;;;;;2.60;1.57;;;14.00;99.90;;;;;;5037389;28;20496;-82
2021/05/25 01:45:05;;;;;;;3.53;1.73;;;14.00;99.90;;;;;;5039582;28;20454;-80
2021/05/25 01:47:32;;;;;;;2.37;1.60;;;14.00;99.90;;;;;;5051465;28;20471;-79
2021/05/25 01:50:11;;;;;;;1.90;1.80;;;;;;;;;;5046873;28;20439;-80
2021/05/25 01:52:38;;;;;;;4.30;1.80;;;14.00;99.90;;;;;;5041395;28;20454;-81
2021/05/25 01:55:07;;;;;;;2.53;2.33;;;13.80;99.90;;;;;;5045287;28;20468;-81
2021/05/25 01:57:35;;;;;;;2.93;1.67;;;15.00;99.90;;;;;;5038196;28;20466;-82
2021/05/25 02:00:01;;;;;;;3.30;1.90;;;;;;;;;;5040841;28;20844;-80
2021/05/25 02:02:28;;;;;;;3.20;1.97;;;13.80;99.90;;;;;;5037811;28;20458;-82
2021/05/25 02:04:54;;;;;;;2.90;2.27;;;13.80;99.90;;;;;;5037410;28;20447;-81
2021/05/25 02:07:20;;;;;;;2.20;2.10;;;13.80;99.90;;;;;;5039015;28;20459;-80
2021/05/25 02:09:46;;;;;;;4.10;2.33;;;13.30;99.90;;;;;;5042847;28;20450;-79
2021/05/25 02:12:15;;;;;;;4.37;2.00;;;13.60;99.90;;;;;;5042667;28;20450;-79
2021/05/25 02:14:43;;;;;;;3.83;1.80;;;13.40;99.90;;;;;;5046668;28;20442;-79
2021/05/25 02:17:10;;;;;;;5.83;2.17;;;13.80;99.90;;;;;;5043721;28;20466;-79
2021/05/25 02:19:37;;;;;;;2.43;2.23;;;;;;;;;;5042825;28;20489;-79
2021/05/25 02:22:03;;;;;;;3.13;2.70;;;13.30;99.90;;;;;;5041299;28;20457;-79
2021/05/25 02:24:29;;;;;;;2.33;2.13;;;13.20;99.90;;;;;;5038620;28;20762;-83
2021/05/25 02:26:56;;;;;;;3.90;2.70;;;;;;;;;;5038833;28;20451;-82
2021/05/25 02:29:22;;;;;;;2.30;2.20;;;;;;;;;;5041551;28;20425;-82
2021/05/25 02:31:50;;;;;;;4.30;2.17;;;;;;;;;;5038827;28;20452;-81
2021/05/25 02:34:16;;;;;;;1.80;1.70;;;;;;;;;;5037821;28;20818;-82
2021/05/25 02:36:43;;;;;;;4.77;2.13;;;;;;;;;;5037629;28;20497;-81
2021/05/25 02:39:09;;;;;;;2.50;2.30;;;;;;;;;;5041907;28;20905;-81
2021/05/25 02:41:35;;;;;;;3.63;2.03;;;13.10;99.90;;;;;;5037232;28;20455;-82
2021/05/25 02:44:01;;;;;;;2.10;1.90;;;13.10;99.90;;;;;;5039734;28;20437;-81
2021/05/25 02:46:27;;;;;;;2.83;2.40;;;13.10;99.90;;;;;;5039321;28;20493;-83
2021/05/25 02:48:55;;;;;;;2.37;2.10;;;13.10;99.90;;;;;;5037310;28;20501;-83
2021/05/25 02:51:21;;;;;;;5.10;2.00;;;13.00;99.90;;;;;;5037407;28;20416;-83
2021/05/25 02:53:47;;;;;;;2.23;2.10;;;;;;;;;;5036371;28;20457;-83
2021/05/25 02:56:14;;;;;;;2.20;2.00;;;;;;;;;;5036654;28;20473;-83
2021/05/25 02:58:40;;;;;;;3.30;2.10;;;13.20;99.90;;;;;;5036528;28;20466;-82
2021/05/25 03:01:06;;;;;;;4.00;2.03;;;13.30;99.90;;;;;;5037620;28;20943;-81
2021/05/25 03:03:32;;;;;;;3.17;2.70;;;;;;;;;;5037706;28;20808;-80
2021/05/25 03:05:59;;;;;;;2.33;2.13;;;13.40;99.90;;;;;;5040855;28;20469;-80
2021/05/25 03:08:27;;;;;;;2.60;2.40;;;;;;;;;;5049473;28;20463;-79
2021/05/25 03:10:53;;;;;;;2.70;2.47;;;13.20;99.90;;;;;;5053293;28;20450;-79
2021/05/25 03:13:19;;;;;;;4.20;2.57;;;13.50;99.90;;;;;;5046224;28;20453;-79
2021/05/25 03:15:48;;;;;;;4.13;2.60;;;13.50;99.90;;;;;;5045412;28;20443;-79
2021/05/25 03:18:14;;;;;;;3.00;2.70;;;;;;;;;;5044826;28;20470;-79
2021/05/25 03:20:43;;;;;;;2.27;2.07;;;13.40;99.90;;;;;;5048034;28;20520;-80
2021/05/25 03:23:10;;;;;;;3.83;2.57;;;13.30;99.90;;;;;;5047460;28;20532;-79
2021/05/25 03:25:36;;;;;;;2.70;2.50;;;13.40;99.90;;;;;;5043423;28;20450;-81
2021/05/25 03:28:03;;;;;;;3.70;2.90;;;;;;;;;;5037440;28;20470;-81
2021/05/25 03:30:29;;;;;;;3.77;2.90;;;13.30;99.90;;;;;;5037536;28;20451;-80
2021/05/25 03:32:57;;;;;;;4.13;3.00;;;13.30;99.90;;;;;;5037965;28;20453;-81
2021/05/25 03:35:24;;;;;;;5.20;2.60;;;13.20;99.90;;;;;;5036802;28;20485;-83
2021/05/25 03:37:51;;;;;;;6.23;2.90;;;13.20;99.90;;;;;;5050946;22;20281;-77
2021/05/25 03:40:19;;;;;;;3.87;2.80;;;13.10;99.90;;;;;;5033015;28;20479;-77
2021/05/25 03:42:46;;;;;;;4.43;2.67;;;13.20;99.90;;;;;;5033042;28;20474;-77
2021/05/25 03:45:13;;;;;;;2.60;2.40;;;13.20;99.90;;;;;;5032964;28;20862;-77
2021/05/25 03:47:40;;;;;;;5.00;2.77;;;;;;;;;;5033150;28;20477;-78
2021/05/25 03:50:07;;;;;;;3.13;2.60;;;13.20;99.90;;;;;;5034084;28;20470;-78
2021/05/25 03:52:35;;;;;;;2.73;2.53;;;13.20;99.90;;;;;;5033970;28;20478;-78
2021/05/25 03:55:02;;;;;;;3.20;2.73;;;13.30;99.90;;;;;;5034971;28;20462;-77
2021/05/25 04:00:15;;;;;;;3.80;2.40;;;13.30;99.90;;;;;;5033496;28;20454;-78
2021/05/25 04:02:41;;;;;;;3.20;3.00;;;13.40;99.90;;;;;;5033809;28;20442;-78
2021/05/25 04:05:08;;;;;;;3.50;3.20;;;13.40;99.90;;;;;;5033215;28;20969;-78
2021/05/25 04:07:34;;;;;;;2.67;2.23;;;13.30;99.90;;;;;;5032836;28;20470;-75
2021/05/25 04:10:00;;;;;;;3.07;2.77;;;13.40;99.90;;;;;;5033143;28;20442;-77
2021/05/25 04:12:27;;;;;;;3.10;2.83;;;13.40;99.90;;;;;;5033519;28;20469;-77
2021/05/25 04:14:53;;;;;;;3.30;3.00;;;13.40;99.90;;;;;;5033557;28;20451;-77
2021/05/25 04:17:20;;;;;;;2.83;2.50;;;13.20;99.90;;;;;;5033236;28;20477;-77
2021/05/25 04:19:46;;;;;;;2.90;2.70;;;13.40;99.90;;;;;;5033110;28;20482;-77
2021/05/25 04:22:12;;;;;;;3.67;2.77;;;13.40;99.90;;;;;;5032646;28;20938;-77
2021/05/25 04:24:38;;;;;;;2.87;2.63;;;13.40;99.90;;;;;;5032992;28;20474;-77
2021/05/25 04:27:04;;;;;;;3.07;2.87;;;13.50;99.90;;;;;;5032842;28;20442;-77
2021/05/25 04:29:31;;;;;;;3.70;2.97;;;13.40;99.90;;;;;;5032658;28;20870;-77
2021/05/25 04:31:57;;;;;;;2.60;2.40;;;13.40;99.90;;;;;;5032448;28;20454;-77
2021/05/25 04:34:23;;;;;;;3.37;2.47;;;13.40;99.90;;;;;;5033196;28;20446;-77
2021/05/25 04:36:49;;;;;;;3.87;2.40;;;13.40;99.90;;;;;;5033225;28;20462;-77
2021/05/25 04:39:15;;;;;;;3.00;2.80;;;13.40;99.90;;;;;;5033730;28;20568;-77
2021/05/25 04:41:41;;;;;;;7.53;3.53;;;13.40;99.90;;;;;;5036521;28;20446;-77
2021/05/25 04:44:08;;;;;;;2.97;2.77;;;13.40;99.90;;;;;;5037001;28;20877;-77
2021/05/25 04:46:34;;;;;;;2.70;2.50;;;13.50;99.90;;;;;;5039377;28;20453;-77
2021/05/25 04:49:00;;;;;;;3.00;2.70;;;13.50;99.90;;;;;;5036787;28;20790;-77
2021/05/25 04:51:26;;;;;;;4.80;3.23;;;13.40;99.90;;;;;;5040056;28;20936;-77
2021/05/25 04:53:53;;;;;;;4.13;3.03;;;13.40;99.90;;;;;;5037836;28;20841;-77
2021/05/25 04:56:20;;;;;;;3.30;3.00;;;13.50;99.90;;;;;;5036175;28;20447;-77
2021/05/25 04:58:46;;;;;;;2.70;2.50;;;13.50;99.90;;;;;;5035983;28;20865;-77
2021/05/25 05:01:12;;;;;;;3.60;2.53;;;13.60;99.90;;;;;;5037651;28;20461;-77
2021/05/25 05:03:38;;;;;;;4.57;2.97;;;13.70;99.90;;;;;;5039598;28;20811;-77
2021/05/25 05:06:05;;;;;;;2.80;2.60;;;13.70;99.90;;;;;;5041457;28;20454;-77
2021/05/25 05:08:31;;;;;;;3.70;3.10;;;13.70;99.90;;;;;;5039605;28;20520;-76
2021/05/25 05:10:57;;;;;;;7.83;7.03;;;13.70;99.90;;;;;;5041166;28;20446;-77
2021/05/25 05:13:25;;;;;;;3.37;3.00;;;13.80;99.90;;;;;;5040257;28;20458;-77
2021/05/25 05:15:51;;;;;;;3.47;3.27;;;13.80;99.90;;;;;;5038409;28;20439;-77
2021/05/25 05:18:17;;;;;;;3.93;3.57;;;13.80;99.90;;;;;;5036009;28;20466;-77
2021/05/25 05:20:43;;;;;;;5.87;4.97;;;13.80;99.90;;;;;;5036568;28;20514;-77
2021/05/25 05:23:10;;;;;;;7.80;6.07;;;13.80;99.90;;;;;;5038874;28;20474;-77
2021/05/25 05:25:37;;;;;;;8.60;7.80;;;13.80;99.90;;;;;;5039400;28;20447;-77
2021/05/25 05:28:03;;;;;;;7.63;6.67;;;13.70;99.90;;;;;;5040157;28;20641;-77
2021/05/25 05:30:30;;;;;;;5.43;5.03;;;13.70;99.90;;;;;;5040029;28;20937;-77
2021/05/25 05:32:56;;;;;;;4.70;3.73;;;13.70;99.90;;;;;;5039820;28;20425;-77
2021/05/25 05:35:22;;;;;;;2.63;2.43;;;13.80;99.90;;;;;;5039436;28;20446;-77
2021/05/25 05:37:48;;;;;;;3.77;3.20;;;13.70;99.90;;;;;;5039709;28;20509;-77
2021/05/25 05:40:16;;;;;;;2.80;2.33;;;13.80;99.90;;;;;;5037990;28;20466;-77
2021/05/25 05:42:42;;;;;;;3.70;2.23;;;13.70;99.90;;;;;;5036108;28;20443;-77
2021/05/25 05:45:09;;;;;;;5.23;2.70;;;13.70;99.90;;;;;;5035771;28;20500;-77
2021/05/25 05:47:35;;;;;;;2.20;2.10;;;13.70;99.90;;;;;;5036467;28;20466;-77
2021/05/25 05:50:09;;;;;;;2.90;2.33;;;13.70;99.90;;;;;;5035863;28;20501;-77
2021/05/25 05:52:36;;;;;;;5.03;3.03;;;13.70;99.90;;;;;;5035722;28;20941;-77
2021/05/25 05:55:02;;;;;;;3.60;3.00;;;13.70;99.90;;;;;;5035663;28;20446;-78
2021/05/25 05:57:29;;;;;;;5.10;3.10;;;14.00;99.90;;;;;;5035685;28;20501;-77
2021/05/25 05:59:55;;;;;;;2.70;2.33;;;13.70;99.90;;;;;;5035972;28;20577;-77
2021/05/25 06:02:21;;;;;;;6.27;2.50;;;13.70;99.90;;;;;;5035232;28;20474;-77
2021/05/25 06:04:48;;;;;;;4.13;3.10;;;;;;;;;;5036717;28;20477;-77
2021/05/25 06:07:14;;;;;;;3.17;2.87;;;;;;;;;;5036249;28;20450;-77
2021/05/25 06:09:40;;;;;;;2.40;2.20;;;13.60;99.90;;;;;;5034537;28;20500;-77
2021/05/25 06:12:07;;;;;;;6.00;3.03;;;13.60;99.90;;;;;;5035703;28;20501;-77
2021/05/25 06:14:34;;;;;;;3.23;2.33;;;13.60;99.90;;;;;;5035377;28;20442;-77
2021/05/25 06:17:01;;;;;;;4.63;3.23;;;13.60;99.90;;;;;;5034828;28;20575;-77
2021/05/25 06:19:27;;;;;;;1.83;1.73;;;13.60;99.90;;;;;;5035152;28;20482;-77
2021/05/25 06:21:53;;;;;;;2.27;2.03;;;13.70;99.90;;;;;;5036294;28;20450;-78
2021/05/25 06:24:19;;;;;;;1.90;1.80;;;13.60;99.90;;;;;;5034950;28;20450;-76
2021/05/25 06:26:46;;;;;;;4.20;2.60;;;13.50;99.90;;;;;;5032083;28;20446;-77
2021/05/25 06:29:12;;;;;;;2.97;1.90;;;14.00;99.90;;;;;;5033559;28;20473;-78
2021/05/25 06:31:39;;;;;;;2.57;2.30;;;13.60;99.90;;;;;;5035075;28;20489;-78
2021/05/25 06:34:06;;;;;;;1.37;1.27;;;13.70;99.90;;;;;;5034442;28;20969;-77
2021/05/25 06:36:32;;;;;;;2.90;1.57;;;13.50;99.90;;;;;;5046060;28;20447;-77
2021/05/25 06:38:58;;;;;;;3.70;1.80;;;13.50;99.90;;;;;;5037197;28;20486;-76
2021/05/25 06:41:24;;;;;;;2.77;1.57;;;13.60;99.90;;;;;;5038086;28;20447;-77
2021/05/25 06:43:50;;;;;;;3.10;1.47;;;13.70;99.90;;;;;;5036097;28;20482;-77
2021/05/25 06:46:16;;;;;;;2.33;2.13;;;13.50;99.90;;;;;;5034759;28;20450;-77
2021/05/25 06:48:43;;;;;;;4.37;2.63;;;13.40;99.90;;;;;;5034570;28;20474;-77
2021/05/25 06:51:09;;;;;;;2.13;1.80;;;13.50;99.90;;;;;;5034294;28;20914;-75
2021/05/25 06:53:36;;;;;;;3.33;1.60;;;13.50;99.90;;;;;;5038049;28;20446;-77
2021/05/25 06:56:02;;;;;;;4.60;2.17;;;13.50;99.90;;;;;;5041250;28;20549;-78
2021/05/25 06:58:28;;;;;;;3.67;2.07;;;13.50;99.90;;;;;;5035936;28;20467;-76
2021/05/25 07:00:54;;;;;;;5.63;1.50;;;13.60;99.90;;;;;;5039726;28;20529;-77
2021/05/25 07:03:20;;;;;;;1.70;1.20;;;13.90;99.90;;;;;;5036730;28;20530;-77
2021/05/25 07:05:47;;;;;;;1.73;1.50;;;13.60;99.90;;;;;;5040148;28;20438;-77
2021/05/25 07:08:13;;;;;;;1.90;1.50;;;13.60;99.90;;;;;;5041376;28;20462;-77
2021/05/25 07:10:39;;;;;;;2.23;1.10;;;13.70;99.90;;;;;;5039130;28;20442;-77
2021/05/25 07:13:10;;;;;;;1.93;1.57;;;13.60;99.90;;;;;;5034786;28;20578;-77
2021/05/25 07:15:36;;;;;;;2.37;1.57;;;13.70;99.90;;;;;;5033875;28;20435;-77
2021/05/25 07:18:02;;;;;;;1.90;1.00;;;13.70;99.90;;;;;;5034544;28;20496;-77
2021/05/25 07:20:29;;;;;;;1.30;1.20;;;13.60;99.90;;;;;;5033348;28;20512;-77
2021/05/25 07:22:56;;;;;;;2.50;1.23;;;13.70;99.90;;;;;;5033042;28;20483;-78
2021/05/25 07:25:24;;;;;;;2.43;1.40;;;13.70;99.90;;;;;;5033214;28;20474;-77
2021/05/25 07:27:50;;;;;;;1.20;1.10;;;13.70;99.90;;;;;;5033203;28;20839;-77
2021/05/25 07:30:17;;;;;;;3.60;2.30;;;13.80;99.90;;;;;;5033086;28;20863;-77
2021/05/25 07:32:44;;;;;;;2.10;1.50;;;13.80;99.90;;;;;;5033298;28;20917;-76
2021/05/25 07:35:11;;;;;;;1.87;1.37;;;13.80;99.90;;;;;;5033157;28;20456;-77
2021/05/25 07:37:39;;;;;;;1.30;1.20;;;13.70;99.90;;;;;;5032730;28;20485;-76
2021/05/25 07:40:08;;;;;;;3.83;1.20;;;13.80;99.90;;;;;;5033007;28;20838;-76
2021/05/25 07:42:34;;;;;;;8.30;1.40;;;13.80;99.90;;;;;;5032885;28;20485;-76
2021/05/25 07:45:01;;;;;;;2.40;1.40;;;13.70;99.90;;;;;;5032494;28;20455;-76
2021/05/25 07:47:28;;;;;;;2.17;1.47;;;13.50;99.90;;;;;;5034399;28;20459;-77
2021/05/25 07:49:54;;;;;;;1.53;1.20;;;13.60;99.90;;;;;;5033860;28;20478;-78
2021/05/25 07:52:20;;;;;;;7.03;2.20;;;13.70;99.90;;;;;;5033617;28;20446;-77
2021/05/25 07:54:46;;;;;;;1.27;1.00;;;13.80;99.90;;;;;;5034153;28;20442;-78
2021/05/25 07:57:13;;;;;;;2.77;1.50;;;13.60;99.90;;;;;;5033519;28;20462;-78
2021/05/25 07:59:39;;;;;;;1.83;1.00;;;13.70;99.90;;;;;;5033833;28;20485;-78
2021/05/25 08:02:05;;;;;;;3.73;1.40;;;13.80;99.90;;;;;;5033535;28;20425;-77
2021/05/25 08:04:31;;;;;;;3.73;1.27;;;13.80;99.90;;;;;;5037161;28;20860;-77
2021/05/25 08:06:57;;;;;;;1.43;1.33;;;13.80;99.90;;;;;;5040045;28;20938;-77
2021/05/25 08:09:23;;;;;;;2.13;1.57;;;13.70;99.90;;;;;;5039602;28;20893;-77
2021/05/25 08:11:50;;;;;;;1.60;1.50;;;13.80;99.90;;;;;;5037067;28;20956;-77
2021/05/25 08:14:17;;;;;;;1.77;1.57;;;13.80;99.90;;;;;;5035279;28;20473;-77
2021/05/25 08:16:44;;;;;;;5.73;1.67;;;13.80;99.90;;;;;;5037323;28;20446;-77
2021/05/25 08:19:15;;;;;;;6.37;1.57;;;13.80;99.90;;;;;;5037226;28;20474;-77
2021/05/25 08:21:42;;;;;;;2.03;1.83;;;13.80;99.90;;;;;;5038503;28;20837;-77
2021/05/25 08:24:09;;;;;;;2.50;1.80;;;13.90;99.90;;;;;;5038288;28;20442;-77
2021/05/25 08:26:39;;;;;;;1.70;1.60;;;14.00;99.90;;;;;;5041102;28;20442;-76
2021/05/25 08:29:05;;;;;;;2.07;1.50;;;14.00;99.90;;;;;;5041698;28;20472;-77
2021/05/25 08:31:32;;;;;;;2.67;1.00;;;14.10;99.90;;;;;;5041026;28;20482;-77
2021/05/25 08:33:58;;;;;;;1.70;1.60;;;14.10;99.90;;;;;;5038276;28;20473;-77
2021/05/25 08:36:24;;;;;;;11.00;7.90;;;13.70;99.90;;;;;;5036752;28;20486;-77
2021/05/25 08:38:50;;;;;;;1.70;1.60;;;13.60;99.90;;;;;;5036675;28;20478;-77
2021/05/25 08:41:16;;;;;;;2.53;1.70;;;13.70;99.90;;;;;;5036831;28;20492;-77
2021/05/25 08:43:42;;;;;;;5.47;1.80;;;13.80;99.90;;;;;;5037320;28;20450;-75
2021/05/25 08:46:08;;;;;;;1.63;1.50;;;13.90;99.90;;;;;;5039833;28;20454;-77
2021/05/25 08:48:40;;;;;;;1.70;1.13;;;14.00;99.90;;;;;;5040493;28;20489;-77
2021/05/25 08:51:06;;;;;;;1.80;1.70;;;14.10;99.90;;;;;;5039849;28;20461;-77
2021/05/25 08:53:33;;;;;;;3.47;1.33;;;14.10;99.90;;;;;;5040377;28;20451;-77
2021/05/25 08:55:59;;;;;;;4.23;1.33;;;14.30;99.90;;;;;;5041005;28;20460;-78
2021/05/25 08:58:26;;;;;;;2.70;1.10;;;14.30;99.90;;;;;;5040293;28;20485;-77
2021/05/25 09:00:55;;;;;;;4.53;1.33;;;14.30;99.90;;;;;;5039691;28;20478;-77
2021/05/25 09:03:22;;;;;;;1.40;1.00;;;14.10;99.90;;;;;;5038573;28;20512;-77
2021/05/25 09:05:51;;;;;;;1.27;1.13;;;14.00;99.90;;;;;;5036668;28;20442;-77
2021/05/25 09:08:18;;;;;;;1.20;1.00;;;13.90;99.90;;;;;;5036662;28;20848;-77
2021/05/25 09:10:46;;;;;;;1.70;1.60;;;14.10;99.90;;;;;;5036704;28;20501;-77
2021/05/25 09:13:15;;;;;;;2.13;1.37;;;14.10;99.90;;;;;;5036602;28;20450;-76
2021/05/25 09:15:44;;;;;;;1.70;1.40;;;14.00;99.90;;;;;;5036662;28;20529;-77
2021/05/25 09:18:12;;;;;;;1.97;1.20;;;14.20;99.90;;;;;;5036419;28;20565;-77
2021/05/25 09:20:40;;;;;;;1.67;1.43;;;14.30;99.90;;;;;;5040798;28;20485;-77
2021/05/25 09:23:08;;;;;;;2.17;1.43;;;14.20;99.90;;;;;;5039700;28;20455;-77
2021/05/25 09:25:35;;;;;;;5.90;1.30;;;14.40;99.90;;;;;;5038462;28;20949;-77
2021/05/25 09:28:07;;;;;;;1.50;1.40;;;14.50;99.90;;;;;;5036299;28;20552;-77
2021/05/25 09:30:34;;;;;;;2.07;1.70;;;14.60;99.90;;;;;;5034529;28;20439;-77
2021/05/25 09:33:02;;;;;;;2.80;1.80;;;14.70;99.90;;;;;;5034574;28;20465;-77
2021/05/25 09:35:30;;;;;;;1.13;1.03;;;14.70;99.90;;;;;;5035250;28;20450;-77
2021/05/25 09:37:57;;;;;;;2.03;1.30;;;15.00;99.90;;;;;;5061864;22;20864;-80
2021/05/25 09:40:27;;;;;;;1.40;1.30;;;14.90;99.90;;;;;;5027132;28;20486;-79
2021/05/25 09:43:08;;;;;;;1.37;1.13;;;15.00;99.90;;;;;;5027875;28;20435;-79
2021/05/25 09:45:37;;;;;;;1.77;1.20;;;15.00;99.90;;;;;;5028308;28;20423;-81
2021/05/25 09:48:04;;;;;;;7.63;2.77;;;14.50;99.90;;;;;;5027474;28;20488;-82
2021/05/25 09:50:30;;;;;;;2.23;1.77;;;14.50;99.90;;;;;;5027913;28;20450;-83
2021/05/25 09:53:20;;;;;;;2.53;1.20;;;14.80;99.90;;;;;;5025397;28;20447;-82
2021/05/25 09:55:49;;;;;;;2.10;1.67;;;15.80;99.90;;;;;;5019465;28;20515;-81
2021/05/25 09:58:15;;;;;;;1.67;1.57;;;15.40;99.90;;;;;;5019853;28;20471;-82
2021/05/25 10:00:44;;;;;;;2.10;1.53;;;15.60;99.90;;;;;;5018425;28;20479;-82
2021/05/25 10:03:16;;;;;;;4.30;1.67;;;15.70;99.90;;;;;;5019094;28;20479;-82
2021/05/25 10:05:44;;;;;;;1.60;1.27;;;16.00;99.90;;;;;;5019250;28;20435;-80
2021/05/25 10:08:12;;;;;;;1.40;1.30;;;15.90;99.90;;;;;;5018608;28;20526;-82
2021/05/25 10:10:38;;;;;;;1.30;1.20;;;;;;;;;;5018816;28;20452;-81
2021/05/25 10:13:06;;;;;;;2.90;1.93;;;16.10;99.90;;;;;;5024274;28;20445;-83
2021/05/25 10:15:32;;;;;;;1.40;1.30;;;;;;;;;;5021831;28;20483;-82
2021/05/25 10:20:52;;;;;;;1.30;0.90;;;16.10;99.90;;;;;;4986328;28;20479;-82
2021/05/25 10:23:19;;;;;;;1.33;1.23;;;;;;;;;;5021864;28;20443;-81
2021/05/25 10:25:49;;;;;;;3.20;1.00;;;16.00;99.90;;;;;;5021691;28;20470;-82
2021/05/25 10:28:16;;;;;;;1.23;0.93;;;16.10;99.90;;;;;;5020621;28;20507;-81
2021/05/25 10:30:45;;;;;;;4.83;1.40;;;16.00;99.90;;;;;;5020703;28;20505;-80
2021/05/25 10:33:31;;;;;;;1.20;1.10;;;16.20;99.90;;;;;;5021636;28;20447;-81
2021/05/25 10:36:01;;;;;;;1.83;1.20;;;16.40;99.90;;;;;;5023367;28;20466;-80
2021/05/25 10:38:29;;;;;;;2.53;1.13;;;16.20;99.90;;;;;;5023682;28;20491;-80
2021/05/25 10:40:57;;;;;;;3.10;1.10;;;16.20;99.90;;;;;;5026129;28;20494;-82
2021/05/25 10:43:44;;;;;;;3.23;1.47;;;16.40;99.90;;;;;;5021660;28;20455;-82
2021/05/25 10:46:21;;;;;;;1.50;1.40;;;16.40;99.90;;;;;;5021965;28;20507;-81
2021/05/25 10:48:51;;;;;;;3.00;1.00;;;16.20;99.90;;;;;;5021743;28;20463;-82
2021/05/25 10:51:18;;;;;;;1.93;0.90;;;;;;;;;;5021978;28;20504;-81
2021/05/25 10:53:44;;;;;;;2.60;0.90;;;;;;;;;;5020586;28;20455;-82
2021/05/25 10:56:27;;;;;;;1.47;1.10;;;15.40;99.90;;;;;;5021444;28;20455;-82
2021/05/25 10:59:00;;;;;;;2.27;1.07;;;15.00;99.90;;;;;;5019439;28;20475;-82
2021/05/25 11:01:30;;;;;;;1.20;1.10;;;14.60;99.90;;;;;;5018001;28;20494;-79
2021/05/25 11:04:06;;;;;;;1.50;1.10;;;13.80;99.90;;;;;;5018540;28;20452;-83
2021/05/25 11:06:33;;;;;;;3.20;2.23;;;;;;;;;;5019527;28;20918;-81
2021/05/25 11:09:21;;;;;;;0.80;0.80;;;14.20;99.90;;;;;;5017793;28;20475;-81
2021/05/25 11:12:07;;;;;;;1.60;1.10;;;14.30;99.90;;;;;;5017617;28;20424;-81
2021/05/25 11:14:34;;;;;;;1.33;1.13;;;14.20;99.90;;;;;;5021624;28;20447;-82
2021/05/25 11:17:31;;;;;;;1.03;0.93;;;14.40;99.90;;;;;;5022971;28;20438;-82
2021/05/25 11:20:09;;;;;;;1.10;1.00;;;14.40;99.90;;;;;;5019805;28;20494;-81
2021/05/25 11:22:36;;;;;;;2.03;1.40;;;14.80;99.90;;;;;;5018157;28;20436;-82
2021/05/25 11:25:06;;;;;;;1.27;0.97;;;15.00;99.90;;;;;;5017210;28;20460;-80
2021/05/25 11:27:35;;;;;;;0.90;0.90;;;15.20;99.90;;;;;;5017777;28;20462;-82
2021/05/25 11:30:09;;;;;;;0.93;0.93;;;15.30;99.90;;;;;;5018596;28;20471;-82
2021/05/25 11:32:45;;;;;;;1.17;1.07;;;15.20;99.90;;;;;;5027280;28;20444;-80
2021/05/25 11:35:14;;;;;;;1.23;0.97;;;15.20;99.90;;;;;;5027554;28;20435;-81
2021/05/25 11:37:43;;;;;;;1.80;1.10;;;14.80;99.90;;;;;;5029215;28;20451;-79
2021/05/25 11:40:12;;;;;;;1.47;1.20;;;14.80;99.90;;;;;;5021385;28;20487;-79
2021/05/25 11:42:38;;;;;;;1.30;0.97;;;15.10;99.90;;;;;;5018120;28;20451;-81
2021/05/25 11:45:08;;;;;;;1.73;1.00;;;15.10;99.90;;;;;;5024479;28;20462;-81
2021/05/25 11:47:35;;;;;;;1.10;1.00;;;15.10;99.90;;;;;;5018710;28;20863;-83
2021/05/25 11:50:01;;;;;;;1.63;1.10;;;15.10;99.90;;;;;;5022446;28;20471;-82
2021/05/25 11:52:29;;;;;;;2.63;1.10;;;15.10;99.90;;;;;;5021663;28;20885;-82
2021/05/25 11:54:58;;;;;;;2.37;1.43;;;15.10;99.90;;;;;;5021629;28;20908;-82
2021/05/25 11:57:34;;;;;;;1.63;0.97;;;15.40;99.90;;;;;;5032723;28;20447;-79
2021/05/25 12:00:03;;;;;;;2.77;0.90;;;15.80;99.90;;;;;;5030412;28;20584;-79
2021/05/25 12:02:31;;;;;;;4.87;1.40;;;16.10;99.90;;;;;;5031220;28;20443;-79
2021/05/25 12:05:02;;;;;;;1.50;1.40;;;16.20;99.90;;;;;;5030995;28;20454;-80
2021/05/25 12:07:29;;;;;;;1.73;0.70;;;16.80;99.90;;;;;;5031141;28;20438;-79
2021/05/25 12:09:58;;;;;;;0.97;0.87;;;;;;;;;;5031472;28;20466;-80
2021/05/25 12:12:27;;;;;;;1.00;0.73;;;16.70;99.90;;;;;;5033193;28;20451;-80
2021/05/25 12:14:53;;;;;;;1.63;1.43;;;16.70;99.90;;;;;;5033498;28;20443;-80
2021/05/25 12:17:23;;;;;;;1.57;1.13;;;16.30;99.90;;;;;;5033928;28;20458;-80
2021/05/25 12:19:56;;;;;;;1.10;1.00;;;16.30;99.90;;;;;;5034631;28;20493;-81
2021/05/25 12:22:33;;;;;;;4.20;1.80;;;15.90;99.90;;;;;;5033386;28;20423;-81
2021/05/25 12:25:23;;;;;;;1.53;1.40;;;16.30;99.90;;;;;;5027056;28;20455;-81
2021/05/25 12:27:51;;;;;;;1.07;1.00;;;16.70;99.90;;;;;;5025202;28;20423;-82
2021/05/25 12:30:19;;;;;;;2.03;0.90;;;16.70;99.90;;;;;;5025370;28;20923;-82
2021/05/25 12:32:46;;;;;;;1.53;1.17;;;16.50;99.90;;;;;;5027670;28;20485;-80
2021/05/25 12:35:16;;;;;;;2.63;1.40;;;16.60;99.90;;;;;;5027475;28;20443;-83
2021/05/25 12:37:42;;;;;;;2.07;1.43;;;16.90;99.90;;;;;;5027141;28;20447;-82
2021/05/25 12:40:11;;;;;;;1.50;1.30;;;16.30;99.90;;;;;;5025270;28;20487;-82
2021/05/25 12:42:40;;;;;;;1.37;1.27;;;17.00;99.90;;;;;;5027426;28;20456;-83
2021/05/25 12:45:09;;;;;;;2.03;1.17;;;17.10;99.90;;;;;;5027811;28;20447;-82
2021/05/25 12:47:52;;;;;;;0.70;0.70;;;17.10;99.90;;;;;;5027875;28;20451;-83
2021/05/25 12:50:35;;;;;;;1.30;1.00;;;17.10;99.90;;;;;;5029257;28;20474;-80
2021/05/25 12:53:07;;;;;;;2.43;1.07;;;17.20;99.90;;;;;;5025580;28;20439;-81
2021/05/25 12:55:34;;;;;;;1.40;1.30;;;17.30;99.90;;;;;;5027178;28;20427;-82
2021/05/25 12:58:00;;;;;;;1.20;1.10;;;17.60;99.90;;;;;;5026183;28;20451;-82
2021/05/25 13:00:31;;;;;;;2.07;1.07;;;17.40;99.90;;;;;;5021579;28;20490;-81
2021/05/25 13:02:58;;;;;;;1.47;1.37;;;17.70;99.90;;;;;;5021444;28;20533;-81
2021/05/25 13:05:27;;;;;;;2.37;1.33;;;17.70;99.90;;;;;;5021804;28;20487;-82
2021/05/25 13:07:59;;;;;;;1.30;1.20;;;17.50;99.90;;;;;;5020829;28;21026;-82